createdAt,value
2017-09-17T00:00:53.219Z,0.00
2017-09-17T00:01:53.216Z,0.00
2017-09-17T00:02:53.206Z,0.00
2017-09-17T00:03:53.206Z,0.00
2017-09-17T00:04:53.205Z,0.00
2017-09-17T00:05:53.215Z,0.00
2017-09-17T00:06:53.203Z,0.00
2017-09-17T00:07:53.200Z,0.00
2017-09-17T00:08:53.197Z,0.00
2017-09-17T00:09:53.193Z,0.00
2017-09-17T00:10:53.190Z,0.00
2017-09-17T00:11:53.189Z,0.00
2017-09-17T00:12:53.185Z,0.00
2017-09-17T00:13:53.185Z,0.00
2017-09-17T00:14:53.183Z,0.00
2017-09-17T00:15:53.180Z,0.00
2017-09-17T00:16:53.177Z,0.00
2017-09-17T00:17:53.175Z,0.00
2017-09-17T00:18:53.177Z,0.00
2017-09-17T00:19:53.170Z,0.00
2017-09-17T00:20:53.167Z,0.00
2017-09-17T00:21:53.169Z,0.00
2017-09-17T00:22:53.161Z,0.00
2017-09-17T00:23:53.161Z,0.00
2017-09-17T00:24:53.160Z,0.00
2017-09-17T00:25:53.158Z,0.00
2017-09-17T00:26:53.153Z,0.00
2017-09-17T00:27:53.152Z,0.00
2017-09-17T00:28:53.148Z,0.00
2017-09-17T00:29:53.157Z,0.00
2017-09-17T00:30:53.142Z,0.00
2017-09-17T00:31:53.161Z,0.00
2017-09-17T00:32:53.137Z,0.00
2017-09-17T00:33:53.137Z,0.00
2017-09-17T00:34:53.133Z,0.00
2017-09-17T00:35:53.133Z,0.00
2017-09-17T00:36:53.128Z,0.00
2017-09-17T00:37:53.124Z,0.00
2017-09-17T00:38:53.120Z,0.00
2017-09-17T00:39:53.120Z,0.00
2017-09-17T00:40:53.117Z,0.00
2017-09-17T00:41:53.117Z,0.00
2017-09-17T00:42:53.113Z,0.00
2017-09-17T00:43:53.107Z,0.00
2017-09-17T00:44:53.110Z,0.00
2017-09-17T00:45:53.103Z,0.00
2017-09-17T00:46:53.101Z,0.00
2017-09-17T00:47:53.098Z,0.00
2017-09-17T00:48:53.102Z,0.00
2017-09-17T00:49:53.095Z,0.00
2017-09-17T00:50:53.095Z,0.00
2017-09-17T00:51:53.086Z,0.00
2017-09-17T00:52:53.090Z,0.00
2017-09-17T00:53:53.076Z,0.00
2017-09-17T00:54:53.102Z,0.00
2017-09-17T00:55:53.075Z,0.00
2017-09-17T00:56:53.074Z,0.00
2017-09-17T00:57:53.075Z,0.00
2017-09-17T00:58:53.066Z,0.00
2017-09-17T00:59:53.071Z,0.00
2017-09-17T01:00:53.063Z,0.00
2017-09-17T01:01:53.060Z,0.00
2017-09-17T01:02:53.057Z,0.00
2017-09-17T01:03:53.051Z,0.00
2017-09-17T01:04:53.066Z,0.00
2017-09-17T01:05:53.047Z,0.00
2017-09-17T01:06:53.045Z,0.00
2017-09-17T01:07:53.045Z,0.00
2017-09-17T01:08:53.042Z,0.00
2017-09-17T01:09:53.040Z,0.00
2017-09-17T01:10:53.036Z,0.00
2017-09-17T01:11:53.040Z,0.00
2017-09-17T01:14:16.103Z,0.00
2017-09-17T01:15:16.080Z,0.00
2017-09-17T01:17:09.572Z,0.00
2017-09-17T01:18:09.443Z,0.00
2017-09-17T01:19:09.447Z,0.00
2017-09-17T01:20:09.440Z,0.00
2017-09-17T01:21:09.436Z,0.00
2017-09-17T01:22:09.436Z,0.00
2017-09-17T01:23:09.431Z,0.00
2017-09-17T01:24:09.429Z,0.00
2017-09-17T01:25:09.426Z,0.00
2017-09-17T01:26:09.422Z,0.00
2017-09-17T01:27:09.423Z,0.00
2017-09-17T01:28:09.419Z,0.00
2017-09-17T01:29:09.418Z,0.00
2017-09-17T01:30:09.409Z,0.00
2017-09-17T01:31:09.410Z,0.00
2017-09-17T01:32:09.407Z,0.00
2017-09-17T01:33:09.404Z,0.00
2017-09-17T01:34:09.405Z,0.00
2017-09-17T01:35:09.401Z,0.00
2017-09-17T01:36:09.397Z,0.00
2017-09-17T01:37:09.392Z,0.00
2017-09-17T01:38:09.393Z,0.00
2017-09-17T01:39:09.405Z,0.00
2017-09-17T01:40:09.387Z,0.00
2017-09-17T01:41:09.384Z,0.00
2017-09-17T01:42:09.375Z,0.00
2017-09-17T01:43:09.376Z,0.00
2017-09-17T01:44:09.369Z,0.00
2017-09-17T01:45:09.370Z,0.00
2017-09-17T01:46:09.369Z,0.00
2017-09-17T01:47:09.369Z,0.00
2017-09-17T01:48:09.361Z,0.00
2017-09-17T01:49:09.356Z,0.00
2017-09-17T01:50:09.356Z,0.00
2017-09-17T01:51:09.355Z,0.00
2017-09-17T01:52:09.350Z,0.00
2017-09-17T01:53:09.346Z,0.00
2017-09-17T01:54:09.345Z,0.00
2017-09-17T01:55:09.341Z,0.00
2017-09-17T01:56:09.342Z,0.00
2017-09-17T01:57:09.335Z,0.00
2017-09-17T01:58:09.332Z,0.00
2017-09-17T01:59:09.326Z,0.00
2017-09-17T02:00:09.327Z,0.00
2017-09-17T02:01:09.323Z,0.00
2017-09-17T02:02:09.324Z,0.00
2017-09-17T02:03:09.319Z,0.00
2017-09-17T02:04:09.314Z,0.00
2017-09-17T02:05:09.313Z,0.00
2017-09-17T02:06:09.309Z,0.00
2017-09-17T02:07:09.307Z,0.00
2017-09-17T02:08:09.304Z,0.00
2017-09-17T02:09:09.302Z,0.00
2017-09-17T02:10:09.298Z,0.00
2017-09-17T02:11:09.293Z,0.00
2017-09-17T02:12:09.292Z,0.00
2017-09-17T02:13:09.288Z,0.00
2017-09-17T02:14:09.288Z,0.00
2017-09-17T02:15:09.282Z,0.00
2017-09-17T02:16:09.275Z,0.00
2017-09-17T02:17:09.278Z,0.00
2017-09-17T02:18:09.273Z,0.00
2017-09-17T02:19:09.268Z,0.00
2017-09-17T02:20:09.268Z,0.00
2017-09-17T02:21:09.265Z,0.00
2017-09-17T02:22:09.261Z,0.00
2017-09-17T02:23:09.259Z,0.00
2017-09-17T02:24:09.256Z,0.00
2017-09-17T02:25:09.249Z,0.00
2017-09-17T02:26:09.248Z,0.00
2017-09-17T02:27:09.243Z,0.00
2017-09-17T02:28:09.243Z,0.00
2017-09-17T02:29:09.240Z,0.00
2017-09-17T02:30:09.245Z,0.00
2017-09-17T02:31:09.239Z,0.00
2017-09-17T02:32:09.231Z,0.00
2017-09-17T02:33:09.224Z,0.00
2017-09-17T02:34:09.225Z,0.00
2017-09-17T02:35:09.222Z,0.00
2017-09-17T02:36:09.218Z,0.00
2017-09-17T02:37:09.218Z,0.00
2017-09-17T02:38:09.213Z,0.00
2017-09-17T02:39:09.210Z,0.00
2017-09-17T02:40:09.204Z,0.00
2017-09-17T02:41:09.211Z,0.00
2017-09-17T02:42:09.198Z,0.00
2017-09-17T02:43:09.197Z,0.00
2017-09-17T02:44:09.196Z,0.00
2017-09-17T02:45:09.194Z,0.00
2017-09-17T02:46:09.190Z,0.00
2017-09-17T02:47:09.185Z,0.00
2017-09-17T02:48:09.179Z,0.00
2017-09-17T02:49:09.181Z,0.00
2017-09-17T02:50:09.183Z,0.00
2017-09-17T02:51:09.173Z,0.00
2017-09-17T02:52:09.171Z,0.00
2017-09-17T02:53:09.168Z,0.00
2017-09-17T02:54:09.163Z,0.00
2017-09-17T02:55:09.158Z,0.00
2017-09-17T02:56:09.158Z,0.00
2017-09-17T02:57:09.154Z,0.00
2017-09-17T02:58:09.151Z,0.00
2017-09-17T02:59:09.145Z,0.00
2017-09-17T03:00:09.147Z,0.00
2017-09-17T03:01:09.141Z,0.00
2017-09-17T03:02:09.139Z,0.00
2017-09-17T03:03:09.130Z,0.00
2017-09-17T03:04:09.133Z,0.00
2017-09-17T03:05:09.131Z,0.00
2017-09-17T03:06:09.132Z,0.00
2017-09-17T03:07:09.125Z,0.00
2017-09-17T03:08:09.119Z,0.00
2017-09-17T03:09:09.118Z,0.00
2017-09-17T03:10:09.112Z,0.00
2017-09-17T03:11:09.112Z,0.00
2017-09-17T03:12:09.109Z,0.00
2017-09-17T03:13:09.105Z,0.00
2017-09-17T03:14:09.101Z,0.00
2017-09-17T03:15:09.095Z,0.00
2017-09-17T03:16:09.095Z,0.00
2017-09-17T03:17:09.088Z,0.00
2017-09-17T03:18:09.091Z,0.00
2017-09-17T03:19:09.079Z,0.00
2017-09-17T03:20:09.082Z,0.00
2017-09-17T03:21:09.077Z,0.00
2017-09-17T03:22:09.075Z,0.00
2017-09-17T03:23:09.071Z,0.00
2017-09-17T03:24:09.068Z,0.00
2017-09-17T03:25:09.065Z,0.00
2017-09-17T03:26:09.068Z,0.00
2017-09-17T03:27:09.059Z,0.00
2017-09-17T03:28:09.056Z,0.00
2017-09-17T03:29:09.052Z,0.00
2017-09-17T03:30:09.050Z,0.00
2017-09-17T03:31:09.046Z,0.00
2017-09-17T03:32:09.043Z,0.00
2017-09-17T03:33:09.040Z,0.00
2017-09-17T03:34:09.035Z,0.00
2017-09-17T03:35:09.032Z,0.00
2017-09-17T03:36:09.033Z,0.00
2017-09-17T03:37:09.023Z,0.00
2017-09-17T03:38:09.021Z,0.00
2017-09-17T03:39:09.024Z,0.00
2017-09-17T03:40:09.019Z,0.00
2017-09-17T03:41:09.013Z,0.00
2017-09-17T03:42:09.011Z,0.00
2017-09-17T03:43:09.001Z,0.00
2017-09-17T03:44:09.002Z,0.00
2017-09-17T03:45:09.000Z,0.00
2017-09-17T03:46:08.997Z,0.00
2017-09-17T03:47:08.992Z,0.00
2017-09-17T03:48:08.990Z,0.00
2017-09-17T03:49:08.986Z,0.00
2017-09-17T03:50:08.984Z,0.00
2017-09-17T03:51:08.985Z,0.00
2017-09-17T03:52:08.976Z,0.00
2017-09-17T03:53:08.975Z,0.00
2017-09-17T03:54:08.970Z,0.00
2017-09-17T03:55:08.967Z,0.00
2017-09-17T03:56:08.962Z,0.00
2017-09-17T03:57:08.960Z,0.00
2017-09-17T03:58:08.954Z,0.00
2017-09-17T03:59:08.953Z,0.00
2017-09-17T04:00:08.950Z,0.00
2017-09-17T04:01:08.947Z,0.00
2017-09-17T04:02:08.941Z,0.00
2017-09-17T04:03:08.939Z,0.00
2017-09-17T04:04:08.934Z,0.00
2017-09-17T04:05:08.931Z,0.00
2017-09-17T04:06:08.932Z,0.00
2017-09-17T04:07:08.924Z,0.00
2017-09-17T04:08:08.920Z,0.00
2017-09-17T04:09:08.918Z,0.00
2017-09-17T04:10:08.928Z,0.00
2017-09-17T04:11:08.914Z,0.00
2017-09-17T04:12:08.911Z,0.00
2017-09-17T04:13:08.909Z,0.00
2017-09-17T04:14:08.901Z,0.00
2017-09-17T04:15:08.898Z,0.00
2017-09-17T04:16:08.900Z,0.00
2017-09-17T04:17:08.891Z,0.00
2017-09-17T04:18:08.889Z,0.00
2017-09-17T04:19:08.887Z,4.00
2017-09-17T04:20:08.884Z,4.00
2017-09-17T04:21:08.877Z,0.00
2017-09-17T04:22:08.873Z,4.00
2017-09-17T04:23:08.866Z,4.00
2017-09-17T04:24:08.868Z,8.00
2017-09-17T04:25:08.865Z,4.00
2017-09-17T04:26:08.860Z,8.00
2017-09-17T04:27:08.871Z,8.00
2017-09-17T04:28:08.854Z,8.00
2017-09-17T04:29:08.852Z,12.00
2017-09-17T04:30:08.849Z,12.00
2017-09-17T04:31:08.849Z,16.00
2017-09-17T04:32:08.840Z,20.00
2017-09-17T04:33:08.837Z,24.00
2017-09-17T04:34:08.835Z,28.00
2017-09-17T04:35:08.831Z,32.00
2017-09-17T04:36:08.820Z,36.00
2017-09-17T04:37:08.828Z,44.00
2017-09-17T04:38:08.822Z,52.00
2017-09-17T04:39:08.817Z,60.00
2017-09-17T04:40:08.822Z,64.00
2017-09-17T04:41:08.813Z,76.00
2017-09-17T04:42:08.805Z,84.00
2017-09-17T04:43:08.805Z,96.00
2017-09-17T04:44:08.797Z,104.00
2017-09-17T04:45:08.798Z,116.00
2017-09-17T04:46:08.796Z,124.00
2017-09-17T04:47:08.790Z,140.00
2017-09-17T04:48:08.789Z,152.00
2017-09-17T04:49:08.785Z,168.00
2017-09-17T04:50:08.791Z,184.00
2017-09-17T04:51:08.780Z,204.00
2017-09-17T04:52:08.783Z,220.00
2017-09-17T04:53:08.777Z,240.00
2017-09-17T04:54:08.769Z,256.00
2017-09-17T04:55:08.765Z,280.00
2017-09-17T04:56:08.767Z,296.00
2017-09-17T04:57:08.759Z,320.00
2017-09-17T04:58:08.756Z,344.00
2017-09-17T04:59:08.751Z,364.00
2017-09-17T05:00:08.752Z,392.00
2017-09-17T05:01:08.747Z,416.00
2017-09-17T05:02:08.748Z,452.00
2017-09-17T05:03:08.741Z,484.00
2017-09-17T05:04:08.735Z,516.00
2017-09-17T05:05:08.737Z,548.00
2017-09-17T05:06:08.733Z,576.00
2017-09-17T05:07:08.727Z,612.00
2017-09-17T05:08:08.728Z,648.00
2017-09-17T05:09:08.722Z,672.00
2017-09-17T05:10:08.718Z,700.00
2017-09-17T05:11:08.714Z,728.00
2017-09-17T05:12:08.716Z,756.00
2017-09-17T05:13:08.708Z,788.00
2017-09-17T05:14:08.705Z,824.00
2017-09-17T05:15:08.705Z,852.00
2017-09-17T05:16:08.699Z,888.00
2017-09-17T05:17:08.696Z,916.00
2017-09-17T05:18:08.693Z,944.00
2017-09-17T05:19:08.693Z,968.00
2017-09-17T05:20:08.691Z,992.00
2017-09-17T05:21:08.690Z,1016.00
2017-09-17T05:22:08.685Z,1048.00
2017-09-17T05:23:08.679Z,1088.00
2017-09-17T05:24:08.675Z,1136.00
2017-09-17T05:25:08.676Z,1192.00
2017-09-17T05:26:08.682Z,1240.00
2017-09-17T05:27:08.669Z,1288.00
2017-09-17T05:28:08.663Z,1352.00
2017-09-17T05:29:08.661Z,1420.00
2017-09-17T05:30:08.667Z,1480.00
2017-09-17T05:31:08.658Z,1544.00
2017-09-17T05:32:08.654Z,1616.00
2017-09-17T05:33:08.650Z,1684.00
2017-09-17T05:34:08.648Z,1732.00
2017-09-17T05:35:08.648Z,1764.00
2017-09-17T05:36:08.646Z,1788.00
2017-09-17T05:37:08.637Z,1820.00
2017-09-17T05:38:08.633Z,1872.00
2017-09-17T05:39:08.633Z,1924.00
2017-09-17T05:40:08.628Z,1968.00
2017-09-17T05:41:08.626Z,2000.00
2017-09-17T05:42:08.623Z,2020.00
2017-09-17T05:43:08.622Z,2032.00
2017-09-17T05:44:08.622Z,2040.00
2017-09-17T05:45:08.622Z,2052.00
2017-09-17T05:46:08.610Z,2056.00
2017-09-17T05:47:08.616Z,2068.00
2017-09-17T05:48:08.607Z,2088.00
2017-09-17T05:49:08.607Z,2112.00
2017-09-17T05:50:08.604Z,2132.00
2017-09-17T05:51:08.601Z,2148.00
2017-09-17T05:52:08.605Z,2160.00
2017-09-17T05:53:08.605Z,2172.00
2017-09-17T05:54:08.593Z,2180.00
2017-09-17T05:55:08.592Z,2200.00
2017-09-17T05:56:08.589Z,2228.00
2017-09-17T05:57:08.587Z,2248.00
2017-09-17T05:58:08.588Z,2280.00
2017-09-17T05:59:08.581Z,2324.00
2017-09-17T06:00:08.581Z,2372.00
2017-09-17T06:01:08.578Z,2416.00
2017-09-17T06:02:08.574Z,2460.00
2017-09-17T06:03:08.572Z,2516.00
2017-09-17T06:04:08.571Z,2564.00
2017-09-17T06:05:08.569Z,2616.00
2017-09-17T06:06:08.564Z,2676.00
2017-09-17T06:07:08.565Z,2732.00
2017-09-17T06:08:08.562Z,2772.00
2017-09-17T06:09:08.558Z,2796.00
2017-09-17T06:10:08.557Z,2808.00
2017-09-17T06:11:08.555Z,2796.00
2017-09-17T06:12:08.554Z,2772.00
2017-09-17T06:13:08.557Z,2752.00
2017-09-17T06:14:08.551Z,2732.00
2017-09-17T06:15:08.547Z,2728.00
2017-09-17T06:16:08.543Z,2736.00
2017-09-17T06:17:08.548Z,2748.00
2017-09-17T06:18:08.542Z,2772.00
2017-09-17T06:19:08.538Z,2820.00
2017-09-17T06:20:08.538Z,2864.00
2017-09-17T06:21:08.538Z,2908.00
2017-09-17T06:22:08.533Z,2944.00
2017-09-17T06:23:08.530Z,2988.00
2017-09-17T06:24:08.528Z,3060.00
2017-09-17T06:25:08.528Z,3132.00
2017-09-17T06:26:08.524Z,3196.00
2017-09-17T06:27:08.527Z,3252.00
2017-09-17T06:28:08.527Z,3284.00
2017-09-17T06:29:08.515Z,3288.00
2017-09-17T06:30:08.519Z,3276.00
2017-09-17T06:31:08.515Z,3264.00
2017-09-17T06:32:08.513Z,3276.00
2017-09-17T06:33:08.510Z,3292.00
2017-09-17T06:34:08.512Z,3320.00
2017-09-17T06:35:08.510Z,3364.00
2017-09-17T06:36:08.507Z,3432.00
2017-09-17T06:37:08.506Z,3520.00
2017-09-17T06:38:08.499Z,3632.00
2017-09-17T06:39:08.503Z,3756.00
2017-09-17T06:40:08.501Z,3872.00
2017-09-17T06:41:08.499Z,3980.00
2017-09-17T06:42:08.500Z,4056.00
2017-09-17T06:43:08.497Z,4136.00
2017-09-17T06:44:08.493Z,4228.00
2017-09-17T06:45:08.493Z,4344.00
2017-09-17T06:46:08.488Z,4456.00
2017-09-17T06:47:08.492Z,4532.00
2017-09-17T06:48:08.490Z,4596.00
2017-09-17T06:49:08.486Z,4652.00
2017-09-17T06:50:08.487Z,4696.00
2017-09-17T06:51:08.486Z,4728.00
2017-09-17T06:52:08.484Z,4740.00
2017-09-17T06:53:08.498Z,4748.00
2017-09-17T06:54:09.083Z,4788.00
2017-09-17T06:55:08.484Z,4840.00
2017-09-17T06:56:10.076Z,4896.00
2017-09-17T06:57:08.516Z,4964.00
2017-09-17T06:58:08.477Z,5032.00
2017-09-17T06:59:08.478Z,5100.00
2017-09-17T07:00:08.477Z,5160.00
2017-09-17T07:01:08.475Z,5212.00
2017-09-17T07:02:08.476Z,5240.00
2017-09-17T07:03:08.479Z,5256.00
2017-09-17T07:04:08.474Z,5272.00
2017-09-17T07:05:08.479Z,5304.00
2017-09-17T07:06:08.471Z,5344.00
2017-09-17T07:07:08.471Z,5392.00
2017-09-17T07:08:08.472Z,5464.00
2017-09-17T07:09:08.471Z,5556.00
2017-09-17T07:10:08.468Z,5596.00
2017-09-17T07:11:08.468Z,5764.00
2017-09-17T07:12:08.469Z,5856.00
2017-09-17T07:13:08.469Z,5956.00
2017-09-17T07:14:08.466Z,6048.00
2017-09-17T07:15:08.466Z,6144.00
2017-09-17T07:16:08.467Z,6232.00
2017-09-17T07:17:08.468Z,6308.00
2017-09-17T07:18:08.466Z,6372.00
2017-09-17T07:19:08.461Z,6436.00
2017-09-17T07:20:08.468Z,6492.00
2017-09-17T07:21:08.466Z,6528.00
2017-09-17T07:22:08.463Z,6564.00
2017-09-17T07:23:08.466Z,6592.00
2017-09-17T07:24:08.465Z,6600.00
2017-09-17T07:25:08.464Z,6596.00
2017-09-17T07:26:08.463Z,6584.00
2017-09-17T07:27:08.464Z,6572.00
2017-09-17T07:28:08.458Z,6564.00
2017-09-17T07:29:08.468Z,6540.00
2017-09-17T07:30:08.464Z,6544.00
2017-09-17T07:31:08.462Z,6508.00
2017-09-17T07:32:08.463Z,6500.00
2017-09-17T07:33:08.468Z,6488.00
2017-09-17T07:34:08.463Z,6492.00
2017-09-17T07:35:08.463Z,6504.00
2017-09-17T07:36:08.465Z,6512.00
2017-09-17T07:37:08.463Z,6504.00
2017-09-17T07:38:08.464Z,6480.00
2017-09-17T07:39:08.466Z,6440.00
2017-09-17T07:40:08.468Z,6400.00
2017-09-17T07:41:08.467Z,6356.00
2017-09-17T07:42:08.467Z,6292.00
2017-09-17T07:43:08.469Z,6220.00
2017-09-17T07:44:08.465Z,6148.00
2017-09-17T07:45:08.468Z,6056.00
2017-09-17T07:46:08.469Z,5964.00
2017-09-17T07:47:08.467Z,5884.00
2017-09-17T07:48:08.472Z,5796.00
2017-09-17T07:49:08.470Z,5704.00
2017-09-17T07:50:08.469Z,5656.00
2017-09-17T07:51:08.470Z,5644.00
2017-09-17T07:52:08.474Z,5576.00
2017-09-17T07:53:08.473Z,5468.00
2017-09-17T07:54:08.472Z,5276.00
2017-09-17T07:55:08.475Z,5144.00
2017-09-17T07:56:08.472Z,5016.00
2017-09-17T07:57:08.473Z,4920.00
2017-09-17T07:58:08.474Z,4828.00
2017-09-17T07:59:08.476Z,4780.00
2017-09-17T08:00:08.480Z,4664.00
2017-09-17T08:01:08.479Z,4500.00
2017-09-17T08:02:08.478Z,4396.00
2017-09-17T08:03:08.480Z,4316.00
2017-09-17T08:04:08.476Z,4204.00
2017-09-17T08:05:08.482Z,4028.00
2017-09-17T08:06:08.480Z,3896.00
2017-09-17T08:07:08.480Z,3716.00
2017-09-17T08:08:08.482Z,3568.00
2017-09-17T08:09:08.483Z,3484.00
2017-09-17T08:10:08.501Z,3420.00
2017-09-17T08:11:08.484Z,3296.00
2017-09-17T08:12:08.487Z,3264.00
2017-09-17T08:13:08.492Z,3256.00
2017-09-17T08:14:08.490Z,3264.00
2017-09-17T08:15:08.488Z,3320.00
2017-09-17T08:16:08.493Z,3376.00
2017-09-17T08:17:08.497Z,3488.00
2017-09-17T08:18:08.492Z,3560.00
2017-09-17T08:19:08.491Z,3680.00
2017-09-17T08:20:08.498Z,3752.00
2017-09-17T08:21:08.495Z,3836.00
2017-09-17T08:22:08.494Z,3900.00
2017-09-17T08:23:08.498Z,3964.00
2017-09-17T08:24:08.500Z,4052.00
2017-09-17T08:25:08.508Z,4148.00
2017-09-17T08:26:08.498Z,4216.00
2017-09-17T08:27:08.499Z,4280.00
2017-09-17T08:28:08.508Z,4328.00
2017-09-17T08:29:08.503Z,4372.00
2017-09-17T08:30:08.509Z,4420.00
2017-09-17T08:31:08.505Z,4500.00
2017-09-17T08:32:08.505Z,4580.00
2017-09-17T08:33:08.508Z,4692.00
2017-09-17T08:34:08.507Z,4824.00
2017-09-17T08:35:08.513Z,5008.00
2017-09-17T08:36:08.510Z,5216.00
2017-09-17T08:37:08.513Z,5400.00
2017-09-17T08:38:08.512Z,5608.00
2017-09-17T08:39:08.522Z,5776.00
2017-09-17T08:40:08.510Z,5964.00
2017-09-17T08:41:08.517Z,6064.00
2017-09-17T08:42:08.524Z,6204.00
2017-09-17T08:43:08.525Z,6420.00
2017-09-17T08:44:08.522Z,6708.00
2017-09-17T08:45:08.525Z,6920.00
2017-09-17T08:46:08.530Z,6920.00
2017-09-17T08:47:08.528Z,6840.00
2017-09-17T08:48:08.529Z,6736.00
2017-09-17T08:49:08.534Z,6644.00
2017-09-17T08:50:08.536Z,6584.00
2017-09-17T08:51:08.540Z,6564.00
2017-09-17T08:52:08.543Z,6600.00
2017-09-17T08:53:08.539Z,6688.00
2017-09-17T08:54:08.542Z,6744.00
2017-09-17T08:55:08.546Z,6792.00
2017-09-17T08:56:08.549Z,6908.00
2017-09-17T08:57:08.554Z,6880.00
2017-09-17T08:58:08.561Z,6784.00
2017-09-17T08:59:08.556Z,6688.00
2017-09-17T09:00:08.553Z,6336.00
2017-09-17T09:01:08.563Z,6356.00
2017-09-17T09:02:08.591Z,6356.00
2017-09-17T09:03:08.569Z,6104.00
2017-09-17T09:04:08.571Z,5904.00
2017-09-17T09:05:08.588Z,5964.00
2017-09-17T09:06:08.576Z,5380.00
2017-09-17T09:07:08.579Z,5160.00
2017-09-17T09:08:08.585Z,4980.00
2017-09-17T09:09:08.587Z,4880.00
2017-09-17T09:10:08.588Z,4688.00
2017-09-17T09:11:08.602Z,4588.00
2017-09-17T09:12:08.602Z,4400.00
2017-09-17T09:13:08.605Z,4632.00
2017-09-17T09:14:08.626Z,4668.00
2017-09-17T09:15:08.609Z,4520.00
2017-09-17T09:16:08.611Z,4456.00
2017-09-17T09:17:08.614Z,4392.00
2017-09-17T09:18:08.616Z,4440.00
2017-09-17T09:19:08.619Z,5076.00
2017-09-17T09:20:08.624Z,4588.00
2017-09-17T09:21:08.626Z,5280.00
2017-09-17T09:22:08.629Z,5588.00
2017-09-17T09:23:08.636Z,5556.00
2017-09-17T09:24:08.636Z,5656.00
2017-09-17T09:25:08.640Z,6048.00
2017-09-17T09:26:08.642Z,5784.00
2017-09-17T09:27:08.649Z,5936.00
2017-09-17T09:28:08.645Z,6768.00
2017-09-17T09:29:08.652Z,6188.00
2017-09-17T09:30:08.653Z,6160.00
2017-09-17T09:31:08.658Z,6196.00
2017-09-17T09:32:08.661Z,6276.00
2017-09-17T09:33:08.668Z,6344.00
2017-09-17T09:34:08.667Z,6388.00
2017-09-17T09:35:08.672Z,6572.00
2017-09-17T09:36:08.675Z,6220.00
2017-09-17T09:37:08.678Z,6136.00
2017-09-17T09:38:08.680Z,5932.00
2017-09-17T09:39:08.683Z,6156.00
2017-09-17T09:40:08.687Z,5768.00
2017-09-17T09:41:08.690Z,5716.00
2017-09-17T09:42:08.693Z,5904.00
2017-09-17T09:43:08.763Z,5396.00
2017-09-17T09:44:08.701Z,5040.00
2017-09-17T09:45:08.706Z,4544.00
2017-09-17T09:46:08.711Z,4296.00
2017-09-17T09:47:08.711Z,4224.00
2017-09-17T09:48:08.714Z,4444.00
2017-09-17T09:49:08.719Z,4128.00
2017-09-17T09:50:08.724Z,4236.00
2017-09-17T09:51:08.726Z,4028.00
2017-09-17T09:52:08.731Z,4132.00
2017-09-17T09:53:08.737Z,3964.00
2017-09-17T09:54:08.736Z,3948.00
2017-09-17T09:55:08.739Z,3968.00
2017-09-17T09:56:08.776Z,3540.00
2017-09-17T09:57:08.744Z,4080.00
2017-09-17T09:58:08.749Z,3776.00
2017-09-17T09:59:08.754Z,3964.00
2017-09-17T10:00:08.756Z,3844.00
2017-09-17T10:01:08.802Z,4040.00
2017-09-17T10:02:08.762Z,4164.00
2017-09-17T10:03:08.767Z,3752.00
2017-09-17T10:04:08.775Z,3984.00
2017-09-17T10:05:08.777Z,3708.00
2017-09-17T10:06:08.798Z,3612.00
2017-09-17T10:07:08.817Z,3940.00
2017-09-17T10:08:08.778Z,3612.00
2017-09-17T10:09:08.800Z,3884.00
2017-09-17T10:10:08.790Z,3872.00
2017-09-17T10:11:08.788Z,3916.00
2017-09-17T10:12:08.790Z,4136.00
2017-09-17T10:13:08.808Z,4328.00
2017-09-17T10:14:08.797Z,4536.00
2017-09-17T10:15:08.802Z,4844.00
2017-09-17T10:16:08.813Z,5064.00
2017-09-17T10:17:08.807Z,5116.00
2017-09-17T10:18:08.810Z,5304.00
2017-09-17T10:19:08.812Z,5368.00
2017-09-17T10:20:08.818Z,5272.00
2017-09-17T10:21:08.817Z,5388.00
2017-09-17T10:22:08.821Z,5388.00
2017-09-17T10:23:08.827Z,5448.00
2017-09-17T10:24:08.830Z,5708.00
2017-09-17T10:25:08.835Z,5884.00
2017-09-17T10:26:08.837Z,5952.00
2017-09-17T10:27:08.839Z,6000.00
2017-09-17T10:28:08.886Z,6128.00
2017-09-17T10:29:08.850Z,6308.00
2017-09-17T10:30:08.847Z,6544.00
2017-09-17T10:31:08.852Z,6944.00
2017-09-17T10:32:08.856Z,7300.00
2017-09-17T10:33:08.865Z,7604.00
2017-09-17T10:34:08.863Z,7820.00
2017-09-17T10:35:08.879Z,7988.00
2017-09-17T10:36:08.874Z,8300.00
2017-09-17T10:37:08.877Z,8972.00
2017-09-17T10:38:08.880Z,9772.00
2017-09-17T10:39:08.881Z,10300.00
2017-09-17T10:40:08.884Z,10684.00
2017-09-17T10:41:08.893Z,11080.00
2017-09-17T10:42:08.895Z,11508.00
2017-09-17T10:43:08.902Z,11972.00
2017-09-17T10:44:08.906Z,12212.00
2017-09-17T10:45:08.911Z,11716.00
2017-09-17T10:46:08.915Z,11548.00
2017-09-17T10:47:08.920Z,11788.00
2017-09-17T10:48:08.924Z,11996.00
2017-09-17T10:49:08.932Z,11328.00
2017-09-17T10:50:08.934Z,9480.00
2017-09-17T10:51:08.945Z,8264.00
2017-09-17T10:52:08.946Z,7624.00
2017-09-17T10:53:08.956Z,7528.00
2017-09-17T10:54:08.955Z,7556.00
2017-09-17T10:55:08.962Z,7500.00
2017-09-17T10:56:08.966Z,7656.00
2017-09-17T10:57:08.971Z,8068.00
2017-09-17T10:58:08.975Z,7924.00
2017-09-17T10:59:08.981Z,7908.00
2017-09-17T11:00:08.987Z,8396.00
2017-09-17T11:01:08.989Z,8544.00
2017-09-17T11:02:08.991Z,8452.00
2017-09-17T11:03:09.001Z,8152.00
2017-09-17T11:04:09.005Z,8788.00
2017-09-17T11:05:09.008Z,8920.00
2017-09-17T11:06:09.013Z,8840.00
2017-09-17T11:07:09.019Z,7936.00
2017-09-17T11:08:09.024Z,6660.00
2017-09-17T11:09:09.028Z,6196.00
2017-09-17T11:10:09.033Z,6204.00
2017-09-17T11:11:09.038Z,5496.00
2017-09-17T11:12:09.043Z,5252.00
2017-09-17T11:13:09.055Z,5028.00
2017-09-17T11:14:09.050Z,5288.00
2017-09-17T11:15:09.052Z,4996.00
2017-09-17T11:16:09.059Z,4900.00
2017-09-17T11:17:09.063Z,4928.00
2017-09-17T11:18:09.073Z,4388.00
2017-09-17T11:19:09.075Z,4948.00
2017-09-17T11:20:09.083Z,4780.00
2017-09-17T11:21:09.082Z,4652.00
2017-09-17T11:22:09.087Z,4412.00
2017-09-17T11:23:09.104Z,4384.00
2017-09-17T11:24:09.109Z,4428.00
2017-09-17T11:25:09.108Z,4448.00
2017-09-17T11:26:09.103Z,4496.00
2017-09-17T11:27:09.106Z,4532.00
2017-09-17T11:28:09.128Z,4496.00
2017-09-17T11:29:09.115Z,4464.00
2017-09-17T11:30:09.117Z,4488.00
2017-09-17T11:31:09.116Z,4552.00
2017-09-17T11:32:09.125Z,4620.00
2017-09-17T11:33:09.132Z,4680.00
2017-09-17T11:34:09.165Z,4852.00
2017-09-17T11:35:09.138Z,5468.00
2017-09-17T11:36:09.147Z,6488.00
2017-09-17T11:37:09.148Z,7764.00
2017-09-17T11:38:09.150Z,8452.00
2017-09-17T11:39:09.154Z,9000.00
2017-09-17T11:40:09.158Z,9660.00
2017-09-17T11:41:09.168Z,10064.00
2017-09-17T11:42:09.169Z,10676.00
2017-09-17T11:43:09.171Z,10720.00
2017-09-17T11:44:09.176Z,10648.00
2017-09-17T11:45:09.184Z,10268.00
2017-09-17T11:46:09.186Z,9604.00
2017-09-17T11:47:09.189Z,8796.00
2017-09-17T11:48:09.195Z,7956.00
2017-09-17T11:49:09.200Z,7300.00
2017-09-17T11:50:09.201Z,6712.00
2017-09-17T11:51:09.209Z,6060.00
2017-09-17T11:52:09.216Z,5320.00
2017-09-17T11:53:09.221Z,4728.00
2017-09-17T11:54:09.227Z,4356.00
2017-09-17T11:55:09.228Z,3632.00
2017-09-17T11:56:09.232Z,3612.00
2017-09-17T11:57:09.236Z,3744.00
2017-09-17T11:58:09.243Z,3876.00
2017-09-17T11:59:09.245Z,3848.00
2017-09-17T12:00:09.252Z,3856.00
2017-09-17T12:01:09.257Z,4076.00
2017-09-17T12:02:09.263Z,4432.00
2017-09-17T12:03:09.266Z,4780.00
2017-09-17T12:04:09.281Z,5032.00
2017-09-17T12:05:09.273Z,5272.00
2017-09-17T12:06:09.278Z,5344.00
2017-09-17T12:07:09.285Z,5076.00
2017-09-17T12:08:09.293Z,4584.00
2017-09-17T12:09:09.289Z,4384.00
2017-09-17T12:10:09.295Z,4368.00
2017-09-17T12:11:09.302Z,3756.00
2017-09-17T12:12:09.316Z,3804.00
2017-09-17T12:13:09.307Z,4464.00
2017-09-17T12:14:09.323Z,4604.00
2017-09-17T12:15:09.318Z,4780.00
2017-09-17T12:16:09.323Z,4956.00
2017-09-17T12:17:09.327Z,5156.00
2017-09-17T12:18:09.333Z,5252.00
2017-09-17T12:19:09.336Z,5396.00
2017-09-17T12:20:09.344Z,5144.00
2017-09-17T12:21:09.347Z,5244.00
2017-09-17T12:22:09.348Z,5256.00
2017-09-17T12:23:09.352Z,5768.00
2017-09-17T12:24:09.369Z,6292.00
2017-09-17T12:25:09.363Z,6208.00
2017-09-17T12:26:09.367Z,6056.00
2017-09-17T12:27:09.372Z,5860.00
2017-09-17T12:28:09.377Z,6200.00
2017-09-17T12:29:09.381Z,6564.00
2017-09-17T12:30:09.386Z,6324.00
2017-09-17T12:31:09.443Z,5908.00
2017-09-17T12:32:09.395Z,5884.00
2017-09-17T12:33:09.405Z,5928.00
2017-09-17T12:34:09.405Z,5876.00